KSAW

Sawyer International Airport

Marquette, Michigan, USA
METAR KSAW 231045Z AUTO 01019G27KT 1/2SM SN OVC005 M06/M07 A2964 RMK AO2
Observed Flight Rules
Jan-23 @ 10:45 UTC (an hour ago) Instrument Flight Rules
Wind Visibility Clouds Conditions
10° at 19 knots
 Gusting to 27 knots
1/2 miles
  • Overcast at 500' AGL
  • Snow
Temperatures Readings
Current -6°C / 21°F
Dewpoint -7°C / 19°F
Humidity 93%
Altimeter 29.64" Hg
Pressure 1004 hPa
Elevation 372
METAR KSAW 231045Z AUTO 01019G27KT 1/2SM SN OVC005 M06/M07 A2964 RMK AO2
Observed Flight Rules
Jan-23 @ 10:45 UTC
(an hour ago)
LIFR
Wind Visibility
10° at 19 knots
 Gusting to 27 knots
1/2 miles
Clouds
  • Overcast at 500' AGL
Conditions
  • Snow
Temperature Dewpoint
-6°C / 21°F -7°C / 19°F
Humidity Altimeter Pressure
93% 29.64" Hg 1004 hPa